Time;durP1;ratioP1;P1;durP2;ratioP2;P2;SDS_P1;SDS_P2;PMS_P1;PMS_P2;Temp;Humidity;BMP_temperature;BMP_pressure;BME280_temperature;BME280_humidity;BME280_pressure;Samples;Min_cycle;Max_cycle;Signal;HPM_P1;HPM_P2
2022/11/20 03:02:49;;;;;;;73.30;34.20;;;;;;;-5.36;72.47;99931.80;99771;1281;107322;-70
2022/11/20 03:05:16;;;;;;;67.60;34.30;;;;;;;-5.37;72.45;99934.98;99560;1297;97826;-69
2022/11/20 03:07:44;;;;;;;68.40;36.10;;;;;;;-5.37;72.49;99934.13;99389;1291;137938;-69
2022/11/20 03:10:11;;;;;;;67.40;34.20;;;;;;;-5.38;72.68;99933.76;99523;1297;106481;-70
2022/11/20 03:12:39;;;;;;;65.60;34.00;;;;;;;-5.38;72.82;99931.38;99519;1303;138248;-70
2022/11/20 03:15:07;;;;;;;66.60;34.50;;;;;;;-5.41;73.05;99932.83;99560;1305;106556;-70
2022/11/20 03:17:35;;;;;;;64.20;34.00;;;;;;;-5.42;73.25;99928.90;100540;1297;97098;-67
2022/11/20 03:20:02;;;;;;;59.90;32.10;;;;;;;-5.42;73.03;99922.80;99666;1297;111064;-66
2022/11/20 03:22:31;;;;;;;61.60;33.30;;;;;;;-5.41;73.11;99924.70;99685;1304;106767;-67
2022/11/20 03:24:58;;;;;;;55.40;30.30;;;;;;;-5.39;73.41;99917.13;99594;1297;139430;-68
2022/11/20 03:27:26;;;;;;;59.50;32.30;;;;;;;-5.35;73.50;99919.80;99557;1287;108535;-69
2022/11/20 03:29:53;;;;;;;62.10;33.00;;;;;;;-5.33;73.35;99920.51;99530;1298;137887;-69
2022/11/20 03:32:20;;;;;;;63.10;33.80;;;;;;;-5.30;73.32;99920.92;99668;1297;113146;-69
2022/11/20 03:34:47;;;;;;;61.50;34.00;;;;;;;-5.30;73.57;99918.06;99676;1298;107933;-68
2022/11/20 03:37:15;;;;;;;65.80;35.40;;;;;;;-5.31;73.44;99919.89;99517;1299;139637;-69
2022/11/20 03:39:42;;;;;;;63.10;35.50;;;;;;;-5.33;73.46;99913.74;99694;1298;108395;-69
2022/11/20 03:42:44;;;;;;;62.80;33.70;;;;;;;-5.36;73.51;99922.30;99453;1296;139981;-68
2022/11/20 03:44:56;;;;;;;65.00;32.90;;;;;;;-5.39;73.86;99918.64;99656;1302;112709;-68
2022/11/20 03:47:24;;;;;;;61.70;31.80;;;;;;;-5.40;74.04;99916.75;99649;1296;107407;-67
2022/11/20 03:49:51;;;;;;;58.60;30.10;;;;;;;-5.38;73.85;99912.77;99623;1303;138246;-67
2022/11/20 03:52:18;;;;;;;59.40;30.70;;;;;;;-5.35;73.86;99911.83;99694;1303;108355;-67
2022/11/20 03:54:46;;;;;;;61.80;33.00;;;;;;;-5.32;73.67;99912.25;99607;1298;137620;-67
2022/11/20 03:57:13;;;;;;;62.50;32.90;;;;;;;-5.29;73.80;99919.77;99749;1289;114243;-67
2022/11/20 03:59:40;;;;;;;61.80;33.70;;;;;;;-5.30;73.84;99911.45;99533;1298;138024;-67
2022/11/20 04:02:07;;;;;;;64.70;35.40;;;;;;;-5.29;73.79;99919.60;99682;1305;97841;-67
2022/11/20 04:04:35;;;;;;;71.70;34.10;;;;;;;-5.32;73.95;99918.36;99723;1299;107829;-67
2022/11/20 04:07:02;;;;;;;66.80;35.10;;;;;;;-5.33;74.03;99918.31;99470;1296;137951;-67
2022/11/20 04:09:30;;;;;;;62.80;33.60;;;;;;;-5.37;73.82;99918.89;99629;1299;111265;-67
2022/11/20 04:11:57;;;;;;;65.30;34.60;;;;;;;-5.39;74.15;99921.88;99406;1299;140199;-67
2022/11/20 04:14:25;;;;;;;58.20;30.90;;;;;;;-5.40;74.33;99916.58;99618;1305;99433;-67
2022/11/20 04:16:52;;;;;;;62.90;32.60;;;;;;;-5.39;74.20;99916.79;99824;1296;106690;-66
2022/11/20 04:19:19;;;;;;;63.60;31.30;;;;;;;-5.36;74.31;99915.69;99458;1290;139754;-66
2022/11/20 04:21:47;;;;;;;60.60;31.10;;;;;;;-5.33;74.07;99921.20;99678;1296;110952;-66
2022/11/20 04:24:15;;;;;;;60.90;33.30;;;;;;;-5.30;74.28;99919.41;99531;1304;139245;-66
2022/11/20 04:26:42;;;;;;;66.10;33.80;;;;;;;-5.27;74.59;99914.23;99658;1303;99436;-67
2022/11/20 04:29:11;;;;;;;64.60;35.10;;;;;;;-5.27;74.73;99915.08;99601;1299;108100;-67
2022/11/20 04:31:39;;;;;;;61.30;32.60;;;;;;;-5.28;74.42;99916.90;99530;1297;138473;-67
2022/11/20 04:34:08;;;;;;;63.10;34.80;;;;;;;-5.30;74.57;99913.47;99582;1300;112154;-67
2022/11/20 04:36:36;;;;;;;68.30;36.80;;;;;;;-5.34;74.86;99912.86;99573;1307;137893;-67
2022/11/20 04:39:05;;;;;;;65.60;34.40;;;;;;;-5.39;74.69;99911.55;99592;1304;97737;-67
2022/11/20 04:41:35;;;;;;;65.30;33.70;;;;;;;-5.44;74.89;99912.59;99996;1300;107769;-67
2022/11/20 04:44:04;;;;;;;69.60;35.10;;;;;;;-5.48;74.55;99910.48;99857;1306;97824;-68
2022/11/20 04:46:32;;;;;;;63.50;32.20;;;;;;;-5.48;74.92;99911.15;99688;1296;113879;-67
2022/11/20 04:49:00;;;;;;;63.10;31.70;;;;;;;-5.48;74.89;99910.81;99514;1304;138908;-67
2022/11/20 04:51:27;;;;;;;58.80;31.80;;;;;;;-5.48;74.82;99913.70;99809;1299;97963;-67
2022/11/20 04:53:54;;;;;;;63.10;33.20;;;;;;;-5.46;74.50;99911.52;99561;1296;138032;-67
2022/11/20 04:56:22;;;;;;;64.70;33.40;;;;;;;-5.45;74.80;99912.23;99603;1301;97831;-67
2022/11/20 04:58:49;;;;;;;69.00;35.00;;;;;;;-5.46;74.90;99911.52;99697;1305;111236;-68
2022/11/20 05:01:18;;;;;;;59.70;31.90;;;;;;;-5.49;74.52;99908.41;99663;1304;138058;-67
2022/11/20 05:03:48;;;;;;;63.70;33.90;;;;;;;-5.52;74.50;99908.51;100024;1296;99469;-67
2022/11/20 05:06:17;;;;;;;68.10;34.50;;;;;;;-5.56;74.91;99905.52;99531;1303;138008;-67
2022/11/20 05:08:49;;;;;;;69.30;34.60;;;;;;;-5.61;74.77;99903.84;99727;1296;97992;-67
2022/11/20 05:11:18;;;;;;;64.10;33.10;;;;;;;-5.64;74.88;99904.62;99582;1296;112203;-67
2022/11/20 05:13:46;;;;;;;65.00;33.20;;;;;;;-5.65;74.95;99900.00;100007;1300;139796;-67
2022/11/20 05:16:15;;;;;;;63.20;31.80;;;;;;;-5.65;75.17;99902.38;99606;1291;98435;-67
2022/11/20 05:18:43;;;;;;;65.40;31.70;;;;;;;-5.65;75.01;99903.23;99523;1300;138806;-67
2022/11/20 05:21:12;;;;;;;57.20;31.50;;;;;;;-5.64;74.97;99903.42;99628;1300;97855;-67
2022/11/20 05:23:40;;;;;;;55.50;29.50;;;;;;;-5.65;74.87;99900.01;99582;1296;137529;-68
2022/11/20 05:26:13;;;;;;;58.20;31.20;;;;;;;-5.67;75.16;99901.31;99613;1300;109448;-67
2022/11/20 05:28:40;;;;;;;60.30;30.80;;;;;;;-5.71;74.67;99897.15;99455;1298;100167;-68
2022/11/20 05:31:10;;;;;;;56.10;30.40;;;;;;;-5.75;74.99;99897.55;99491;1298;138156;-68
2022/11/20 05:33:40;;;;;;;56.70;31.50;;;;;;;-5.80;74.81;99897.06;99857;1301;97867;-67
2022/11/20 05:36:09;;;;;;;67.30;34.10;;;;;;;-5.86;74.88;99893.84;99290;1290;138063;-68
2022/11/20 05:38:36;;;;;;;60.20;30.50;;;;;;;-5.94;75.20;99892.31;99668;1294;108738;-67
2022/11/20 05:41:09;;;;;;;60.90;31.50;;;;;;;-5.97;75.15;99892.70;99612;1306;99494;-68
2022/11/20 05:43:38;;;;;;;58.50;30.40;;;;;;;-5.99;75.39;99894.34;98787;1306;1003186;-68
2022/11/20 05:46:07;;;;;;;61.70;30.40;;;;;;;-6.01;75.19;99894.11;99635;1300;97716;-67
2022/11/20 05:48:35;;;;;;;61.80;30.00;;;;;;;-6.03;75.33;99887.81;98720;1299;1002769;-67
2022/11/20 05:51:05;;;;;;;55.80;29.80;;;;;;;-6.02;75.25;99884.95;99617;1301;107332;-68
2022/11/20 05:53:34;;;;;;;59.90;31.40;;;;;;;-6.03;75.38;99885.44;99648;1303;98482;-68
2022/11/20 05:56:04;;;;;;;60.30;32.40;;;;;;;-6.04;75.55;99887.09;99665;1296;108321;-68
2022/11/20 05:58:32;;;;;;;60.60;31.50;;;;;;;-6.08;75.51;99884.80;99803;1303;97817;-68
2022/11/20 06:01:08;;;;;;;58.50;31.30;;;;;;;-6.13;75.55;99888.20;99551;1288;139337;-68
2022/11/20 06:03:36;;;;;;;63.30;33.00;;;;;;;-6.18;75.59;99881.13;99679;1300;110072;-68
2022/11/20 06:06:04;;;;;;;60.70;31.80;;;;;;;-6.23;75.80;99879.80;99558;1307;138097;-68
2022/11/20 06:08:32;;;;;;;60.70;29.60;;;;;;;-6.29;75.88;99872.86;99588;1299;107084;-68
2022/11/20 06:11:00;;;;;;;62.00;31.90;;;;;;;-6.33;75.90;99875.09;99636;1301;97887;-68
2022/11/20 06:13:27;;;;;;;62.30;30.80;;;;;;;-6.35;76.02;99871.64;99535;1304;138878;-68
2022/11/20 06:15:55;;;;;;;56.90;28.60;;;;;;;-6.36;76.33;99867.39;99030;1307;1002484;-68
2022/11/20 06:18:22;;;;;;;55.50;28.60;;;;;;;-6.36;76.13;99869.95;99502;1296;138805;-68
2022/11/20 06:20:49;;;;;;;58.40;30.60;;;;;;;-6.33;76.36;99868.98;99622;1303;108236;-68
2022/11/20 06:23:17;;;;;;;56.90;30.60;;;;;;;-6.30;76.08;99865.19;98930;1300;1002999;-68
2022/11/20 06:25:45;;;;;;;53.30;28.50;;;;;;;-6.28;76.07;99867.45;99536;1301;137931;-68
2022/11/20 06:28:12;;;;;;;52.90;27.90;;;;;;;-6.28;75.92;99863.25;99495;1303;107914;-68
2022/11/20 06:30:45;;;;;;;51.90;27.90;;;;;;;-6.26;75.99;99858.05;99498;1303;137806;-69
2022/11/20 06:33:12;;;;;;;54.20;28.00;;;;;;;-6.23;75.97;99861.52;99612;1306;107709;-68
2022/11/20 06:35:40;;;;;;;56.80;29.70;;;;;;;-6.18;76.04;99861.15;99623;1305;97786;-68
2022/11/20 06:38:07;;;;;;;56.60;31.50;;;;;;;-6.10;76.04;99865.61;99593;1303;112842;-69
2022/11/20 06:40:34;;;;;;;58.10;28.20;;;;;;;-6.01;75.74;99872.11;99467;1299;108461;-69
2022/11/20 06:43:01;;;;;;;53.00;28.10;;;;;;;-5.90;75.63;99871.25;99293;1305;138467;-68
2022/11/20 06:45:28;;;;;;;54.90;28.20;;;;;;;-5.74;75.41;99868.10;99488;1296;107285;-69
2022/11/20 06:47:57;;;;;;;50.50;26.80;;;;;;;-5.57;75.36;99864.32;99365;1301;138541;-68
2022/11/20 06:50:25;;;;;;;53.80;27.70;;;;;;;-5.40;74.88;99863.23;99472;1299;111894;-69
2022/11/20 06:52:52;;;;;;;51.90;28.80;;;;;;;-5.21;74.56;99863.20;98741;1306;1003270;-70
2022/11/20 06:55:19;;;;;;;52.90;29.40;;;;;;;-5.04;74.57;99861.77;99316;1300;138349;-70
2022/11/20 06:57:47;;;;;;;52.60;28.80;;;;;;;-4.87;73.88;99869.61;99527;1305;107317;-69
2022/11/20 07:00:19;;;;;;;54.50;29.20;;;;;;;-4.75;73.66;99867.19;99352;1299;139978;-70
2022/11/20 07:02:46;;;;;;;53.50;29.90;;;;;;;-4.62;73.20;99859.52;99454;1299;111264;-70
2022/11/20 07:05:14;;;;;;;56.60;30.60;;;;;;;-4.49;72.86;99861.66;99288;1308;109021;-70
2022/11/20 07:07:41;;;;;;;49.40;29.90;;;;;;;-4.34;72.58;99852.84;99308;1302;138353;-70
2022/11/20 07:10:10;;;;;;;56.30;30.60;;;;;;;-4.15;72.26;99851.87;99349;1300;108644;-71
2022/11/20 07:12:38;;;;;;;53.20;30.60;;;;;;;-3.96;72.12;99843.07;100740;1298;138006;-70
2022/11/20 07:15:06;;;;;;;54.90;32.00;;;;;;;-3.77;72.03;99844.11;100767;1299;111106;-70
2022/11/20 07:17:33;;;;;;;56.10;33.30;;;;;;;-3.51;71.76;99838.81;100857;1306;109387;-69
2022/11/20 07:20:01;;;;;;;59.20;32.60;;;;;;;-3.24;71.39;99839.97;100173;1299;137733;-68
2022/11/20 07:22:28;;;;;;;56.50;31.70;;;;;;;-2.94;71.38;99834.50;99535;1296;107466;-70
2022/11/20 07:24:55;;;;;;;53.80;31.20;;;;;;;-2.64;70.65;99841.42;99427;1297;137894;-71
2022/11/20 07:27:22;;;;;;;54.20;32.50;;;;;;;-2.36;70.26;99844.54;99563;1305;111370;-69
2022/11/20 07:29:49;;;;;;;55.10;31.70;;;;;;;-2.12;69.58;99841.27;98720;1301;1002991;-69
2022/11/20 07:32:17;;;;;;;52.50;30.80;;;;;;;-1.89;69.39;99843.08;99387;1291;98870;-69
2022/11/20 07:34:44;;;;;;;53.90;32.30;;;;;;;-1.66;69.25;99839.23;99470;1302;106826;-69
2022/11/20 07:37:11;;;;;;;56.90;33.60;;;;;;;-1.48;67.80;99838.23;99253;1297;138508;-70
2022/11/20 07:39:39;;;;;;;56.40;33.20;;;;;;;-1.41;67.03;99844.61;99375;1297;110894;-70
2022/11/20 07:42:08;;;;;;;54.30;32.50;;;;;;;-1.40;66.36;99848.38;99261;1299;138758;-70
2022/11/20 07:44:36;;;;;;;55.80;33.50;;;;;;;-1.45;65.98;99838.59;99336;1296;99525;-69
2022/11/20 07:47:04;;;;;;;52.00;32.90;;;;;;;-1.53;65.70;99838.35;99333;1305;108759;-70
2022/11/20 07:49:31;;;;;;;51.30;31.70;;;;;;;-1.57;65.96;99835.24;99212;1301;139393;-69
2022/11/20 07:51:58;;;;;;;56.80;33.50;;;;;;;-1.56;65.82;99836.95;99304;1296;110198;-70
2022/11/20 07:54:31;;;;;;;55.10;33.10;;;;;;;-1.57;65.68;99840.70;99359;1296;138174;-71
2022/11/20 07:56:58;;;;;;;55.30;33.90;;;;;;;-1.50;65.43;99833.60;99499;1305;98321;-69
2022/11/20 07:59:25;;;;;;;55.00;33.10;;;;;;;-1.45;65.60;99835.70;99347;1301;107883;-68
2022/11/20 08:01:52;;;;;;;54.30;33.80;;;;;;;-1.40;65.34;99833.36;99334;1297;138890;-68
2022/11/20 08:04:20;;;;;;;57.30;35.00;;;;;;;-1.34;65.14;99832.39;99392;1299;111530;-69
2022/11/20 08:06:47;;;;;;;55.10;34.00;;;;;;;-1.30;64.48;99830.38;99428;1299;138202;-68
2022/11/20 08:09:17;;;;;;;56.50;34.30;;;;;;;-1.20;65.18;99828.76;99617;1300;98344;-68
2022/11/20 08:14:30;;;;;;;54.40;32.90;;;;;;;-0.88;65.02;99831.74;99585;1300;97845;-68
2022/11/20 08:16:57;;;;;;;56.90;34.00;;;;;;;-0.75;64.79;99826.89;99526;1299;111195;-67
2022/11/20 08:19:25;;;;;;;54.50;34.50;;;;;;;-0.54;64.84;99830.42;99260;1294;138885;-67
2022/11/20 08:21:52;;;;;;;54.30;33.60;;;;;;;-0.27;64.28;99831.08;99404;1299;99340;-68
2022/11/20 08:24:19;;;;;;;54.20;33.70;;;;;;;0.03;64.30;99823.02;99449;1306;137672;-67
2022/11/20 08:26:46;;;;;;;53.00;32.80;;;;;;;0.33;64.00;99814.21;99548;1296;97899;-67
2022/11/20 08:29:13;;;;;;;49.30;32.90;;;;;;;0.59;63.48;99813.91;99523;1301;113190;-69
2022/11/20 08:31:41;;;;;;;52.50;33.10;;;;;;;0.77;62.24;99813.77;99592;1297;138878;-68
2022/11/20 08:34:26;;;;;;;;;;;;;;;0.86;62.30;99811.52;99558;1300;97871;-67
2022/11/20 08:36:53;;;;;;;53.20;32.50;;;;;;;0.94;62.26;99811.20;99284;1299;123427;-67
2022/11/20 08:39:21;;;;;;;55.00;33.90;;;;;;;0.95;61.78;99811.54;99595;1299;97718;-68
2022/11/20 08:41:48;;;;;;;56.70;33.10;;;;;;;0.95;61.66;99813.60;99574;1299;137727;-67
2022/11/20 08:44:16;;;;;;;53.90;35.20;;;;;;;0.90;61.28;99812.73;99527;1305;109414;-66
2022/11/20 08:46:45;;;;;;;58.60;35.10;;;;;;;0.94;61.56;99811.20;99520;1300;97847;-68
2022/11/20 08:49:15;;;;;;;52.10;33.20;;;;;;;1.08;61.42;99801.26;99448;1296;137256;-65
2022/11/20 08:51:43;;;;;;;54.70;35.10;;;;;;;1.31;62.18;99801.91;99611;1299;97915;-68
2022/11/20 08:54:11;;;;;;;51.00;33.30;;;;;;;1.59;61.51;99788.30;99405;1291;137600;-69
2022/11/20 08:56:38;;;;;;;51.50;34.10;;;;;;;1.97;61.14;99778.90;99466;1296;107649;-68
2022/11/20 08:59:05;;;;;;;54.90;35.50;;;;;;;2.32;61.00;99771.84;95867;1300;1014748;-68
2022/11/20 09:01:51;;;;;;;;;;;;;;;2.76;60.39;99772.55;100718;1306;137975;-68
2022/11/20 09:04:19;;;;;;;52.40;33.60;;;;;;;3.00;59.16;99773.70;99695;1298;97843;-72
2022/11/20 09:06:50;;;;;;;59.00;35.40;;;;;;;3.15;59.03;99773.06;99410;1300;137178;-71
2022/11/20 09:09:17;;;;;;;57.40;35.40;;;;;;;3.34;57.90;99768.73;99474;1293;111210;-71
2022/11/20 09:11:45;;;;;;;54.90;36.10;;;;;;;3.48;57.71;99762.77;99348;1300;137807;-72
2022/11/20 09:14:12;;;;;;;55.00;35.10;;;;;;;3.62;57.70;99760.88;99444;1298;109898;-71
2022/11/20 09:16:40;;;;;;;59.10;35.30;;;;;;;3.79;57.99;99756.53;99410;1298;97820;-71
2022/11/20 09:19:07;;;;;;;55.10;35.40;;;;;;;4.02;57.51;99757.45;99383;1291;137547;-71
2022/11/20 09:21:54;;;;;;;53.90;34.30;;;;;;;4.31;57.68;99751.02;99439;1299;108320;-71
2022/11/20 09:24:25;;;;;;;54.20;35.20;;;;;;;4.45;56.56;99755.79;99454;1299;137715;-71
2022/11/20 09:26:53;;;;;;;54.60;33.80;;;;;;;4.49;56.08;99755.58;98665;1299;1003131;-71
2022/11/20 09:29:20;;;;;;;53.00;34.90;;;;;;;4.60;56.02;99754.36;99450;1296;97827;-71
2022/11/20 09:31:48;;;;;;;54.80;34.50;;;;;;;4.68;55.44;99754.09;99426;1292;137300;-71
2022/11/20 09:34:15;;;;;;;52.30;33.80;;;;;;;4.73;55.29;99750.18;99547;1299;106736;-71
2022/11/20 09:36:42;;;;;;;47.00;34.10;;;;;;;4.80;54.34;99750.23;99358;1296;137371;-71
2022/11/20 09:39:09;;;;;;;52.00;34.40;;;;;;;4.83;54.12;99745.87;99464;1293;107076;-71
2022/11/20 09:42:05;;;;;;;51.10;34.80;;;;;;;4.80;53.48;99740.59;99472;1296;98209;-70
2022/11/20 09:44:50;;;;;;;50.50;34.50;;;;;;;4.78;53.78;99737.88;99560;1296;111092;-71
2022/11/20 09:47:27;;;;;;;52.70;33.20;;;;;;;4.89;54.22;99738.21;99491;1299;107502;-71
2022/11/20 09:50:08;;;;;;;54.40;34.60;;;;;;;5.03;54.38;99733.31;99530;1296;137429;-71
2022/11/20 09:52:45;;;;;;;54.40;34.70;;;;;;;5.14;54.02;99736.38;99507;1296;107418;-70
2022/11/20 09:55:15;;;;;;;49.90;33.20;;;;;;;5.20;53.39;99743.16;99395;1300;137524;-70
2022/11/20 09:57:46;;;;;;;49.90;33.80;;;;;;;5.10;52.63;99744.05;98865;1290;1003109;-71
2022/11/20 10:00:15;;;;;;;54.10;35.50;;;;;;;4.90;52.17;99738.88;99379;1299;137743;-71
2022/11/20 10:02:49;;;;;;;51.60;33.70;;;;;;;4.75;52.91;99735.00;99670;1296;97831;-70
2022/11/20 10:05:21;;;;;;;56.10;34.80;;;;;;;4.61;52.39;99731.44;99710;1307;107869;-71
2022/11/20 10:07:55;;;;;;;53.40;35.40;;;;;;;4.36;52.66;99732.02;99511;1296;137452;-70
2022/11/20 10:10:30;;;;;;;51.40;34.70;;;;;;;4.25;53.34;99734.91;100059;1306;110305;-72
2022/11/20 10:13:14;;;;;;;52.90;34.60;;;;;;;4.08;53.28;99731.72;99521;1299;137701;-71
2022/11/20 10:15:54;;;;;;;54.80;35.60;;;;;;;3.88;52.57;99736.48;99615;1300;99434;-71
2022/11/20 10:18:37;;;;;;;54.40;35.40;;;;;;;3.65;53.05;99734.20;99484;1297;137665;-72
2022/11/20 10:21:12;;;;;;;56.30;36.10;;;;;;;3.44;53.13;99733.05;99643;1299;98709;-72
2022/11/20 10:24:05;;;;;;;56.20;36.70;;;;;;;3.20;53.39;99729.19;99640;1299;111721;-72
2022/11/20 10:26:44;;;;;;;57.10;35.00;;;;;;;3.09;54.18;99721.42;98871;1299;1002982;-76
2022/11/20 10:29:14;;;;;;;54.20;36.00;;;;;;;3.09;54.66;99718.34;99300;1292;98365;-76
2022/11/20 10:31:46;;;;;;;55.40;34.90;;;;;;;3.11;54.56;99718.48;99392;1299;139899;-71
2022/11/20 10:34:22;;;;;;;55.40;36.80;;;;;;;3.13;55.77;99713.14;98022;1293;1003858;-73
2022/11/20 10:36:56;;;;;;;59.60;37.50;;;;;;;3.16;54.75;99714.81;99507;1298;138311;-70
2022/11/20 10:39:32;;;;;;;56.90;36.10;;;;;;;3.14;55.07;99712.43;98924;1299;1003094;-71
2022/11/20 10:42:00;;;;;;;66.10;37.30;;;;;;;3.14;55.08;99708.48;99514;1296;137965;-71
2022/11/20 10:47:23;;;;;;;54.50;34.60;;;;;;;2.92;55.08;99709.40;99397;1296;97851;-71
2022/11/20 10:49:54;;;;;;;58.60;35.10;;;;;;;2.84;55.19;99707.74;99451;1296;138024;-69
2022/11/20 10:52:33;;;;;;;57.30;34.90;;;;;;;2.73;55.03;99715.59;99677;1299;108183;-71
2022/11/20 10:55:13;;;;;;;51.90;31.90;;;;;;;2.59;55.52;99716.73;99588;1296;138527;-70
2022/11/20 10:57:53;;;;;;;49.90;32.00;;;;;;;2.47;55.69;99715.45;99573;1299;107106;-70
2022/11/20 11:00:21;;;;;;;54.50;33.20;;;;;;;2.41;55.86;99716.36;99469;1297;137600;-71
2022/11/20 11:02:50;;;;;;;49.50;31.90;;;;;;;2.38;56.06;99721.36;99598;1300;113146;-71
2022/11/20 11:05:28;;;;;;;51.40;31.20;;;;;;;2.36;56.25;99717.95;99505;1307;110084;-72
2022/11/20 11:07:58;;;;;;;50.10;30.70;;;;;;;2.32;56.11;99718.65;99472;1291;137607;-71
2022/11/20 11:10:31;;;;;;;52.40;32.00;;;;;;;2.24;56.33;99711.17;99556;1299;107156;-73
2022/11/20 11:12:59;;;;;;;52.50;30.50;;;;;;;2.22;56.41;99713.41;99536;1300;137515;-71
2022/11/20 11:15:37;;;;;;;51.80;31.50;;;;;;;2.18;56.28;99708.81;99660;1305;112352;-72
2022/11/20 11:18:04;;;;;;;54.20;33.30;;;;;;;2.10;56.46;99705.25;99287;1299;137534;-73
2022/11/20 11:20:32;;;;;;;49.60;31.00;;;;;;;2.05;56.53;99710.44;99450;1298;97714;-72
2022/11/20 11:23:01;;;;;;;51.40;33.20;;;;;;;2.04;56.91;99704.10;99419;1296;107817;-72
2022/11/20 11:25:33;;;;;;;54.40;32.80;;;;;;;2.11;57.20;99700.95;99292;1293;137352;-72
2022/11/20 11:28:04;;;;;;;52.30;32.40;;;;;;;2.17;57.00;99704.20;99538;1300;111893;-71
2022/11/20 11:30:43;;;;;;;51.30;32.20;;;;;;;2.18;57.26;99702.29;99424;1298;137720;-70
2022/11/20 11:33:20;;;;;;;52.20;31.10;;;;;;;2.22;57.26;99697.46;99686;1297;98351;-73
2022/11/20 11:35:53;;;;;;;49.90;31.00;;;;;;;2.21;57.09;99694.55;99605;1299;108190;-72
2022/11/20 11:38:29;;;;;;;48.10;30.80;;;;;;;2.20;57.22;99691.99;96715;1301;1003196;-71
2022/11/20 11:40:58;;;;;;;47.30;30.50;;;;;;;2.18;57.46;99690.47;99949;1299;111060;-72
2022/11/20 11:46:28;;;;;;;47.60;28.90;;;;;;;2.07;56.24;99694.64;99837;1300;97926;-84
2022/11/20 11:49:01;;;;;;;46.10;28.10;;;;;;;1.88;56.64;99691.86;99412;1298;137468;-73
2022/11/20 11:51:36;;;;;;;48.80;30.00;;;;;;;1.81;59.02;99682.13;99564;1297;99233;-71
2022/11/20 11:54:12;;;;;;;45.10;28.10;;;;;;;1.86;58.77;99679.86;99877;1290;137518;-71
2022/11/20 11:56:40;;;;;;;47.70;29.20;;;;;;;1.86;58.95;99683.30;99662;1293;107403;-72
2022/11/20 11:59:13;;;;;;;44.40;28.60;;;;;;;1.88;59.09;99682.25;99722;1301;97887;-71
2022/11/20 12:01:48;;;;;;;44.60;28.70;;;;;;;1.88;58.68;99681.05;99445;1291;137633;-74
2022/11/20 12:04:26;;;;;;;45.80;27.50;;;;;;;1.86;58.43;99681.06;99471;1300;97808;-75
2022/11/20 12:07:02;;;;;;;44.40;28.80;;;;;;;1.85;57.90;99671.14;99326;1292;137951;-72
2022/11/20 12:09:54;;;;;;;45.00;27.10;;;;;;;1.73;57.87;99673.42;99474;1291;107438;-71
2022/11/20 12:12:25;;;;;;;48.70;29.10;;;;;;;1.63;58.27;99662.87;99356;1291;137667;-70
2022/11/20 12:14:55;;;;;;;46.00;28.40;;;;;;;1.60;58.18;99662.17;99455;1298;107242;-73
2022/11/20 12:17:22;;;;;;;42.60;26.30;;;;;;;1.60;58.57;99661.66;99399;1296;97719;-73
2022/11/20 12:19:50;;;;;;;46.20;28.60;;;;;;;1.57;58.40;99661.34;99189;1291;137306;-73
2022/11/20 12:22:29;;;;;;;41.70;25.80;;;;;;;1.49;57.97;99663.45;98684;1295;1002753;-70
2022/11/20 12:25:04;;;;;;;45.70;27.90;;;;;;;1.42;58.11;99661.59;99527;1296;137780;-71
2022/11/20 12:28:01;;;;;;;43.00;25.60;;;;;;;1.36;58.84;99656.13;99523;1296;107667;-74
2022/11/20 12:30:29;;;;;;;45.70;27.40;;;;;;;1.33;58.72;99645.02;99292;1297;138078;-73
2022/11/20 12:33:14;;;;;;;47.80;27.10;;;;;;;1.28;58.48;99643.49;99493;1291;111031;-73
2022/11/20 12:35:54;;;;;;;43.90;26.60;;;;;;;1.23;58.73;99642.98;99372;1293;107201;-73
2022/11/20 12:39:09;;;;;;;44.20;27.40;;;;;;;1.19;59.06;99634.97;99512;1292;98315;-72
2022/11/20 12:45:12;;;;;;;42.30;25.70;;;;;;;1.20;59.17;99633.75;98988;1305;98014;-73
2022/11/20 12:47:51;;;;;;;43.80;26.30;;;;;;;1.16;58.86;99631.73;98838;1305;110942;-73
2022/11/20 12:50:28;;;;;;;45.90;28.10;;;;;;;1.09;58.70;99627.65;98811;1303;137377;-68
2022/11/20 12:53:05;;;;;;;41.40;26.20;;;;;;;1.04;58.88;99629.37;98920;1312;97874;-67
2022/11/20 12:55:54;;;;;;;49.10;28.60;;;;;;;1.00;59.07;99625.27;98868;1305;137589;-68
2022/11/20 12:58:30;;;;;;;46.00;27.00;;;;;;;0.98;59.28;99625.63;98934;1301;97855;-67
2022/11/20 13:01:04;;;;;;;51.00;29.10;;;;;;;0.94;59.60;99617.61;98858;1302;137227;-67
2022/11/20 13:03:53;;;;;;;48.70;27.30;;;;;;;0.92;59.67;99615.23;98900;1303;108182;-68
2022/11/20 13:06:22;;;;;;;50.40;27.90;;;;;;;0.88;59.78;99608.02;98816;1298;138596;-68
2022/11/20 13:08:54;;;;;;;43.20;26.70;;;;;;;0.84;59.65;99603.94;98900;1307;107500;-68
2022/11/20 13:11:32;;;;;;;42.10;26.00;;;;;;;0.74;59.55;99602.95;99300;1306;98328;-68
2022/11/20 13:14:10;;;;;;;47.50;27.80;;;;;;;0.60;59.73;99602.48;98922;1301;137616;-67
2022/11/20 13:16:45;;;;;;;50.70;28.40;;;;;;;0.49;60.10;99602.98;98970;1306;108122;-68
2022/11/20 13:19:16;;;;;;;49.70;28.00;;;;;;;0.41;60.38;99600.46;98789;1312;138749;-67
2022/11/20 13:21:46;;;;;;;47.00;28.60;;;;;;;0.37;60.62;99594.83;99396;1305;106910;-68
2022/11/20 13:24:27;;;;;;;48.70;28.40;;;;;;;0.32;60.74;99597.02;99799;1298;138230;-68
2022/11/20 13:27:06;;;;;;;45.10;27.40;;;;;;;0.24;60.99;99592.27;99688;1299;110978;-67
2022/11/20 13:29:34;;;;;;;50.10;28.80;;;;;;;0.17;61.25;99591.92;99685;1297;107280;-67
2022/11/20 13:32:08;;;;;;;44.20;27.50;;;;;;;0.12;61.38;99590.55;99468;1293;137703;-68
2022/11/20 13:34:36;;;;;;;46.10;27.70;;;;;;;0.08;61.38;99593.48;99594;1300;108408;-67
2022/11/20 13:37:04;;;;;;;53.90;28.90;;;;;;;0.04;61.61;99592.63;99650;1296;137850;-69
2022/11/20 13:39:34;;;;;;;46.80;28.10;;;;;;;0.04;61.63;99593.14;99674;1301;111915;-69
2022/11/20 13:42:03;;;;;;;48.40;27.60;;;;;;;0.00;61.87;99588.69;99512;1300;137667;-67
2022/11/20 13:44:37;;;;;;;48.40;27.60;;;;;;;-0.06;61.85;99590.39;99620;1296;97833;-67
2022/11/20 13:47:05;;;;;;;45.60;28.00;;;;;;;-0.12;62.10;99589.55;99913;1297;107760;-67
2022/11/20 13:49:38;;;;;;;48.80;28.00;;;;;;;-0.17;62.29;99591.09;99570;1299;138381;-66
2022/11/20 13:52:36;;;;;;;50.60;28.20;;;;;;;-0.23;62.43;99583.55;99605;1299;114184;-68
2022/11/20 13:55:17;;;;;;;45.10;26.30;;;;;;;-0.30;62.48;99583.89;99537;1300;137719;-68
2022/11/20 13:58:06;;;;;;;49.10;29.00;;;;;;;-0.37;62.69;99577.38;99661;1291;97949;-69
2022/11/20 14:00:34;;;;;;;49.60;28.20;;;;;;;-0.46;63.12;99572.95;99376;1296;137642;-68
2022/11/20 14:03:18;;;;;;;50.10;27.50;;;;;;;-0.51;63.18;99579.42;99564;1287;97829;-68
2022/11/20 14:06:13;;;;;;;45.90;27.70;;;;;;;-0.55;63.40;99576.50;99406;1292;138597;-68
2022/11/20 14:08:44;;;;;;;46.70;26.70;;;;;;;-0.57;63.39;99567.44;99527;1299;107962;-68
2022/11/20 14:11:18;;;;;;;50.10;27.60;;;;;;;-0.58;63.67;99561.30;99667;1305;97821;-68
2022/11/20 14:13:59;;;;;;;51.60;29.80;;;;;;;-0.59;63.87;99559.26;99633;1298;137583;-68
2022/11/20 14:16:28;;;;;;;52.30;28.80;;;;;;;-0.61;63.95;99560.27;99619;1293;97961;-68
2022/11/20 14:18:56;;;;;;;53.20;29.90;;;;;;;-0.62;63.97;99560.44;99494;1300;137902;-68
2022/11/20 14:21:29;;;;;;;52.30;30.20;;;;;;;-0.62;64.36;99560.78;99603;1296;109602;-68
2022/11/20 14:24:06;;;;;;;51.20;28.80;;;;;;;-0.63;64.12;99565.57;99574;1290;97948;-67
2022/11/20 14:26:35;;;;;;;54.90;29.30;;;;;;;-0.66;64.28;99563.34;99626;1299;109039;-67
2022/11/20 14:29:02;;;;;;;52.50;30.10;;;;;;;-0.68;64.42;99565.23;99771;1291;97824;-68
2022/11/20 14:31:30;;;;;;;55.70;32.00;;;;;;;-0.70;64.56;99558.73;99681;1291;137722;-77
2022/11/20 14:33:57;;;;;;;57.90;32.10;;;;;;;-0.73;64.76;99555.98;99624;1298;106952;-69
2022/11/20 14:36:26;;;;;;;61.60;30.20;;;;;;;-0.78;65.07;99549.30;99463;1298;137950;-70
2022/11/20 14:38:55;;;;;;;50.60;29.80;;;;;;;-0.79;65.38;99544.02;99614;1297;108854;-70
2022/11/20 14:41:24;;;;;;;61.70;31.40;;;;;;;-0.77;65.69;99546.75;100011;1299;97824;-69
2022/11/20 14:43:55;;;;;;;57.40;30.50;;;;;;;-0.75;65.89;99545.21;98365;1296;1003054;-69
2022/11/20 14:46:24;;;;;;;53.50;31.40;;;;;;;-0.70;66.12;99546.78;99661;1291;108535;-69